createdAt,value
2018-09-12T00:01:46.883Z,16.56
2018-09-12T00:04:13.779Z,16.39
2018-09-12T00:06:40.761Z,16.93
2018-09-12T00:09:09.316Z,16.77
2018-09-12T00:11:36.360Z,15.82
2018-09-12T00:14:03.283Z,16.13
2018-09-12T00:16:30.449Z,16.43
2018-09-12T00:18:57.375Z,16.62
2018-09-12T00:21:24.353Z,16.95
2018-09-12T00:23:51.295Z,16.81
2018-09-12T00:26:18.264Z,16.79
2018-09-12T00:28:45.206Z,16.77
2018-09-12T00:31:12.193Z,16.82
2018-09-12T00:33:39.139Z,16.84
2018-09-12T00:36:06.078Z,16.69
2018-09-12T00:38:33.041Z,16.67
2018-09-12T00:41:00.000Z,16.72
2018-09-12T00:43:26.943Z,16.62
2018-09-12T00:45:53.906Z,16.51
2018-09-12T00:48:20.867Z,16.53
2018-09-12T00:50:47.747Z,16.07
2018-09-12T00:53:14.735Z,15.94
2018-09-12T00:55:41.704Z,15.95
2018-09-12T00:58:08.624Z,15.81
2018-09-12T01:00:36.599Z,15.97
2018-09-12T01:03:03.545Z,15.76
2018-09-12T01:05:30.518Z,15.75
2018-09-12T01:07:57.465Z,15.55
2018-09-12T01:10:24.400Z,15.50
2018-09-12T01:12:51.372Z,15.50
2018-09-12T01:15:18.436Z,16.32
2018-09-12T01:17:45.379Z,16.55
2018-09-12T01:20:12.349Z,16.02
2018-09-12T01:22:39.289Z,16.27
2018-09-12T01:25:06.156Z,16.02
2018-09-12T01:27:33.111Z,16.24
2018-09-12T01:30:00.068Z,16.02
2018-09-12T01:32:27.025Z,15.99
2018-09-12T01:34:53.991Z,16.17
2018-09-12T01:37:20.949Z,16.14
2018-09-12T01:39:47.907Z,15.85
2018-09-12T01:42:14.843Z,15.95
2018-09-12T01:44:41.807Z,15.70
2018-09-12T01:47:08.694Z,15.75
2018-09-12T01:49:35.639Z,15.96
2018-09-12T01:52:02.575Z,16.11
2018-09-12T01:54:29.539Z,15.82
2018-09-12T01:56:56.511Z,15.74
2018-09-12T01:59:23.507Z,15.78
2018-09-12T02:01:50.423Z,15.67
2018-09-12T02:04:17.363Z,16.08
2018-09-12T02:06:44.340Z,15.19
2018-09-12T02:09:13.036Z,15.23
2018-09-12T02:11:40.007Z,15.45
2018-09-12T02:14:06.952Z,15.60
2018-09-12T02:16:33.904Z,15.82
2018-09-12T02:19:00.875Z,15.76
2018-09-12T02:21:27.731Z,15.52
2018-09-12T02:23:54.691Z,15.51
2018-09-12T02:26:21.656Z,15.67
2018-09-12T02:28:48.627Z,15.37
2018-09-12T02:31:15.504Z,15.16
2018-09-12T02:33:42.387Z,15.76
2018-09-12T02:36:15.223Z,15.02
2018-09-12T02:38:42.171Z,14.93
2018-09-12T02:41:09.099Z,14.90
2018-09-12T02:43:35.987Z,15.14
2018-09-12T02:46:02.975Z,15.12
2018-09-12T02:48:29.892Z,15.18
2018-09-12T02:50:58.775Z,15.01
2018-09-12T02:53:25.652Z,14.73
2018-09-12T02:55:52.607Z,14.41
2018-09-12T02:58:19.548Z,14.39
2018-09-12T03:00:46.503Z,14.44
2018-09-12T03:03:13.375Z,14.59
2018-09-12T03:05:40.340Z,14.73
2018-09-12T03:08:07.288Z,14.74
2018-09-12T03:10:34.321Z,14.77
2018-09-12T03:13:01.197Z,14.74
2018-09-12T03:15:28.159Z,14.73
2018-09-12T03:17:56.140Z,14.82
2018-09-12T03:20:23.089Z,15.64
2018-09-12T03:22:50.038Z,15.85
2018-09-12T03:25:17.016Z,15.20
2018-09-12T03:27:43.979Z,15.49
2018-09-12T03:30:10.921Z,15.43
2018-09-12T03:32:37.871Z,15.32
2018-09-12T03:35:05.387Z,15.38
2018-09-12T03:37:32.307Z,15.41
2018-09-12T03:39:59.259Z,15.41
2018-09-12T03:42:26.236Z,15.24
2018-09-12T03:44:53.167Z,15.27
2018-09-12T03:47:20.127Z,15.47
2018-09-12T03:49:47.088Z,15.44
2018-09-12T03:52:14.051Z,15.28
2018-09-12T03:54:41.015Z,15.29
2018-09-12T03:57:08.133Z,15.36
2018-09-12T03:59:35.040Z,15.43
2018-09-12T04:02:01.996Z,15.31
2018-09-12T04:04:28.945Z,15.43
2018-09-12T04:06:55.891Z,15.50
2018-09-12T04:09:22.851Z,15.53
2018-09-12T04:11:49.823Z,15.39
2018-09-12T04:14:16.764Z,15.38
2018-09-12T04:16:43.750Z,15.34
2018-09-12T04:19:10.715Z,15.21
2018-09-12T04:21:37.630Z,15.22
2018-09-12T04:24:04.739Z,15.26
2018-09-12T04:26:31.567Z,14.98
2018-09-12T04:28:58.499Z,14.67
2018-09-12T04:31:25.471Z,14.40
2018-09-12T04:33:52.420Z,14.32
2018-09-12T04:36:19.395Z,14.35
2018-09-12T04:38:46.579Z,14.23
2018-09-12T04:41:13.506Z,14.15
2018-09-12T04:43:40.519Z,14.12
2018-09-12T04:46:07.432Z,14.36
2018-09-12T04:48:34.359Z,14.37
2018-09-12T04:51:01.232Z,14.33
2018-09-12T04:53:28.200Z,15.11
2018-09-12T04:55:55.158Z,14.58
2018-09-12T04:58:22.163Z,14.62
2018-09-12T05:00:49.033Z,14.62
2018-09-12T05:03:15.928Z,14.55
2018-09-12T05:05:42.882Z,14.58
2018-09-12T05:08:09.844Z,14.62
2018-09-12T05:10:36.719Z,14.57
2018-09-12T05:13:03.636Z,14.33
2018-09-12T05:15:30.613Z,14.95
2018-09-12T05:17:57.619Z,14.25
2018-09-12T05:20:24.528Z,14.48
2018-09-12T05:22:51.419Z,14.53
2018-09-12T05:25:18.343Z,14.58
2018-09-12T05:27:45.288Z,14.75
2018-09-12T05:30:12.168Z,14.82
2018-09-12T05:32:39.120Z,15.03
2018-09-12T05:35:06.068Z,15.62
2018-09-12T05:37:33.280Z,15.34
2018-09-12T05:40:00.228Z,15.46
2018-09-12T05:42:27.123Z,15.39
2018-09-12T05:44:54.032Z,15.37
2018-09-12T05:47:20.987Z,15.36
2018-09-12T05:49:47.931Z,15.39
2018-09-12T05:52:14.867Z,15.68
2018-09-12T05:54:41.725Z,15.90
2018-09-12T05:57:08.592Z,15.99
2018-09-12T05:59:35.573Z,16.24
2018-09-12T06:02:02.504Z,16.30
2018-09-12T06:04:29.403Z,16.30
2018-09-12T06:06:56.334Z,16.27
2018-09-12T06:09:23.252Z,16.45
2018-09-12T06:11:50.252Z,16.68
2018-09-12T06:14:18.211Z,16.83
2018-09-12T06:16:45.169Z,17.30
2018-09-12T06:19:12.111Z,17.15
2018-09-12T06:21:39.064Z,17.18
2018-09-12T06:24:06.524Z,17.14
2018-09-12T06:26:33.411Z,17.34
2018-09-12T06:29:00.283Z,17.42
2018-09-12T06:31:27.206Z,17.37
2018-09-12T06:33:54.159Z,17.40
2018-09-12T06:36:21.040Z,17.62
2018-09-12T06:38:47.950Z,17.64
2018-09-12T06:41:14.832Z,17.59
2018-09-12T06:43:41.800Z,17.92
2018-09-12T06:46:08.681Z,18.15
2018-09-12T06:48:35.599Z,18.29
2018-09-12T06:51:02.569Z,18.48
2018-09-12T06:53:29.795Z,18.59
2018-09-12T06:55:56.729Z,18.56
2018-09-12T06:58:23.644Z,18.92
2018-09-12T07:00:51.703Z,19.47
2018-09-12T07:03:18.588Z,19.08
2018-09-12T07:05:45.703Z,19.17
2018-09-12T07:08:12.639Z,19.39
2018-09-12T07:10:39.557Z,19.63
2018-09-12T07:13:06.447Z,19.89
2018-09-12T07:15:33.392Z,19.58
2018-09-12T07:18:00.320Z,19.76
2018-09-12T07:20:27.231Z,19.51
2018-09-12T07:22:54.152Z,19.90
2018-09-12T07:25:21.075Z,20.00
2018-09-12T07:27:47.935Z,20.04
2018-09-12T07:30:14.982Z,19.99
2018-09-12T07:32:42.926Z,20.05
2018-09-12T07:35:09.827Z,20.11
2018-09-12T07:37:37.179Z,20.32
2018-09-12T07:40:06.115Z,20.43
2018-09-12T07:42:32.967Z,20.34
2018-09-12T07:44:59.936Z,20.37
2018-09-12T07:47:26.871Z,20.62
2018-09-12T07:49:53.815Z,20.97
2018-09-12T07:52:20.680Z,21.13
2018-09-12T07:54:47.651Z,21.51
2018-09-12T07:57:14.600Z,21.61
2018-09-12T07:59:41.491Z,21.84
2018-09-12T08:02:08.403Z,22.18
2018-09-12T08:04:35.420Z,21.89
2018-09-12T08:07:02.328Z,22.30
2018-09-12T08:09:29.279Z,22.31
2018-09-12T08:11:58.218Z,22.42
2018-09-12T08:14:25.237Z,22.76
2018-09-12T08:16:52.120Z,22.60
2018-09-12T08:19:19.068Z,22.74
2018-09-12T08:21:46.044Z,22.73
2018-09-12T08:24:12.912Z,22.79
2018-09-12T08:26:40.871Z,23.10
2018-09-12T08:29:07.736Z,23.49
2018-09-12T08:31:34.667Z,23.72
2018-09-12T08:34:01.661Z,23.97
2018-09-12T08:36:28.791Z,23.87
2018-09-12T08:38:55.593Z,24.26
2018-09-12T08:41:22.677Z,24.14
2018-09-12T08:43:50.742Z,24.22
2018-09-12T08:46:17.648Z,24.59
2018-09-12T08:48:44.808Z,25.05
2018-09-12T08:51:11.748Z,24.99
2018-09-12T08:53:38.749Z,24.68
2018-09-12T08:56:05.889Z,25.00
2018-09-12T08:58:32.871Z,25.34
2018-09-12T09:00:59.795Z,25.07
2018-09-12T09:03:26.744Z,25.77
2018-09-12T09:05:53.712Z,25.53
2018-09-12T09:08:20.904Z,25.63
2018-09-12T09:10:47.832Z,25.73
2018-09-12T09:13:14.787Z,25.50
2018-09-12T09:15:41.735Z,25.48
2018-09-12T09:18:08.707Z,25.67
2018-09-12T09:20:35.581Z,25.80
2018-09-12T09:23:02.507Z,26.20
2018-09-12T09:25:29.478Z,26.55
2018-09-12T09:27:56.435Z,26.83
2018-09-12T09:30:30.234Z,26.75
2018-09-12T09:32:57.135Z,27.11
2018-09-12T09:35:24.220Z,27.27
2018-09-12T09:37:51.032Z,27.01
2018-09-12T09:40:17.997Z,27.24
2018-09-12T09:42:45.992Z,27.04
2018-09-12T09:45:12.821Z,27.68
2018-09-12T09:47:39.694Z,27.85
2018-09-12T09:50:06.635Z,27.97
2018-09-12T09:52:33.584Z,28.20
2018-09-12T09:55:00.497Z,27.67
2018-09-12T09:57:27.400Z,27.87
2018-09-12T09:59:54.360Z,27.96
2018-09-12T10:02:27.235Z,28.13
2018-09-12T10:05:00.031Z,28.05
2018-09-12T10:07:32.818Z,27.88
2018-09-12T10:10:02.724Z,28.50
2018-09-12T10:12:31.956Z,27.97
2018-09-12T10:14:58.872Z,28.38
2018-09-12T10:17:25.906Z,29.07
2018-09-12T10:19:54.791Z,28.89
2018-09-12T10:22:21.896Z,28.84
2018-09-12T10:24:48.780Z,29.46
2018-09-12T10:27:19.761Z,29.51
2018-09-12T10:29:46.819Z,29.60
2018-09-12T10:32:13.812Z,28.42
2018-09-12T10:34:42.465Z,28.93
2018-09-12T10:37:09.391Z,29.21
2018-09-12T10:39:36.267Z,28.88
2018-09-12T10:42:03.173Z,29.30
2018-09-12T10:44:30.204Z,29.82
2018-09-12T10:46:57.067Z,30.04
2018-09-12T10:49:24.048Z,30.27
2018-09-12T10:51:50.987Z,29.09
2018-09-12T10:54:17.856Z,29.46
2018-09-12T10:56:44.845Z,29.73
2018-09-12T10:59:12.847Z,29.81
2018-09-12T11:01:39.734Z,30.33
2018-09-12T11:04:06.675Z,29.66
2018-09-12T11:06:33.695Z,30.16
2018-09-12T11:09:00.595Z,30.15
2018-09-12T11:11:28.479Z,29.75
2018-09-12T11:13:56.384Z,29.42
2018-09-12T11:16:23.334Z,29.84
2018-09-12T11:18:50.293Z,30.29
2018-09-12T11:21:17.255Z,30.56
2018-09-12T11:23:44.214Z,30.56
2018-09-12T11:26:11.372Z,30.19
2018-09-12T11:28:38.563Z,30.58
2018-09-12T11:31:05.704Z,30.69
2018-09-12T11:33:32.655Z,30.75
2018-09-12T11:35:59.604Z,30.97
2018-09-12T11:38:26.554Z,30.85
2018-09-12T11:40:53.503Z,31.05
2018-09-12T11:43:20.499Z,31.03
2018-09-12T11:45:48.107Z,30.77
2018-09-12T11:48:15.033Z,30.87
2018-09-12T11:50:41.980Z,31.18
2018-09-12T11:53:08.860Z,31.51
2018-09-12T11:55:35.818Z,31.14
2018-09-12T11:58:02.714Z,31.29
2018-09-12T12:00:29.735Z,31.01
2018-09-12T12:02:56.660Z,31.00
2018-09-12T12:05:23.603Z,30.99
2018-09-12T12:07:50.547Z,31.34
2018-09-12T12:10:17.522Z,30.82
2018-09-12T12:12:44.475Z,31.03
2018-09-12T12:15:11.374Z,30.78
2018-09-12T12:17:38.312Z,31.14
2018-09-12T12:20:05.499Z,31.47
2018-09-12T12:22:32.420Z,31.33
2018-09-12T12:24:59.379Z,31.15
2018-09-12T12:27:26.324Z,31.21
2018-09-12T12:29:53.269Z,31.36
2018-09-12T12:32:20.215Z,31.07
2018-09-12T12:34:47.285Z,31.00
2018-09-12T12:37:14.239Z,31.06
2018-09-12T12:39:41.203Z,31.38
2018-09-12T12:42:08.078Z,31.39
2018-09-12T12:44:35.019Z,31.29
2018-09-12T12:47:01.996Z,31.21
2018-09-12T12:49:28.973Z,31.16
2018-09-12T12:51:55.953Z,31.16
2018-09-12T12:54:22.975Z,31.42
2018-09-12T12:56:49.931Z,31.24
2018-09-12T12:59:16.887Z,30.99
2018-09-12T13:01:43.915Z,30.99
2018-09-12T13:04:10.884Z,31.21
2018-09-12T13:06:37.755Z,31.41
2018-09-12T13:09:06.748Z,31.65
2018-09-12T13:11:33.695Z,31.50
2018-09-12T13:14:00.680Z,31.10
2018-09-12T13:16:27.642Z,31.03
2018-09-12T13:18:54.616Z,31.28
2018-09-12T13:21:21.567Z,31.59
2018-09-12T13:23:48.493Z,31.52
2018-09-12T13:26:15.439Z,31.57
2018-09-12T13:28:42.304Z,31.50
2018-09-12T13:31:09.283Z,31.54
2018-09-12T13:33:36.230Z,31.76
2018-09-12T13:36:03.182Z,32.01
2018-09-12T13:38:30.131Z,32.39
2018-09-12T13:40:57.127Z,32.56
2018-09-12T13:43:24.039Z,32.73
2018-09-12T13:45:51.004Z,32.40
2018-09-12T13:48:17.993Z,32.42
2018-09-12T13:50:44.862Z,32.07
2018-09-12T13:53:11.789Z,32.13
2018-09-12T13:55:38.751Z,31.71
2018-09-12T13:58:05.695Z,31.79
2018-09-12T14:00:32.639Z,31.93
2018-09-12T14:03:01.225Z,31.66
2018-09-12T14:05:28.170Z,31.94
2018-09-12T14:07:56.041Z,32.00
2018-09-12T14:10:22.931Z,31.63
2018-09-12T14:12:49.888Z,31.98
2018-09-12T14:15:16.864Z,32.17
2018-09-12T14:17:43.847Z,31.84
2018-09-12T14:20:10.839Z,31.80
2018-09-12T14:22:37.791Z,31.69
2018-09-12T14:25:04.704Z,31.56
2018-09-12T14:27:31.543Z,31.63
2018-09-12T14:29:58.493Z,31.50
2018-09-12T14:32:25.352Z,31.33
2018-09-12T14:34:52.311Z,31.21
2018-09-12T14:37:19.254Z,31.24
2018-09-12T14:39:46.300Z,31.57
2018-09-12T14:42:13.227Z,31.69
2018-09-12T14:44:40.172Z,31.84
2018-09-12T14:47:07.093Z,31.69
2018-09-12T14:49:34.048Z,31.94
2018-09-12T14:52:01.019Z,31.90
2018-09-12T14:54:27.959Z,31.87
2018-09-12T14:56:54.850Z,31.48
2018-09-12T14:59:21.801Z,31.47
2018-09-12T15:01:48.750Z,31.88
2018-09-12T15:04:15.688Z,31.92
2018-09-12T15:06:42.677Z,31.81
2018-09-12T15:09:11.027Z,31.83
2018-09-12T15:11:38.063Z,31.82
2018-09-12T15:14:05.187Z,31.70
2018-09-12T15:16:32.102Z,31.65
2018-09-12T15:19:00.126Z,31.51
2018-09-12T15:21:27.055Z,31.44
2018-09-12T15:23:54.027Z,31.54
2018-09-12T15:26:20.967Z,31.57
2018-09-12T15:28:47.836Z,31.40
2018-09-12T15:31:14.780Z,31.47
2018-09-12T15:33:41.792Z,31.35
2018-09-12T15:36:08.793Z,31.49
2018-09-12T15:38:35.676Z,31.43
2018-09-12T15:41:02.628Z,31.63
2018-09-12T15:43:29.512Z,31.42
2018-09-12T15:45:56.419Z,31.51
2018-09-12T15:48:23.392Z,31.57
2018-09-12T15:50:50.360Z,31.40
2018-09-12T15:53:17.307Z,30.99
2018-09-12T15:55:44.277Z,30.75
2018-09-12T15:58:11.251Z,30.74
2018-09-12T16:00:38.175Z,31.06
2018-09-12T16:03:05.160Z,30.97
2018-09-12T16:05:32.287Z,31.15
2018-09-12T16:07:59.297Z,31.19
2018-09-12T16:10:26.167Z,30.92
2018-09-12T16:12:53.092Z,30.93
2018-09-12T16:15:20.054Z,30.60
2018-09-12T16:17:46.988Z,30.49
2018-09-12T16:20:13.959Z,30.40
2018-09-12T16:22:40.939Z,30.20
2018-09-12T16:25:07.895Z,30.17
2018-09-12T16:27:34.771Z,30.06
2018-09-12T16:30:01.675Z,30.11
2018-09-12T16:32:28.714Z,29.98
2018-09-12T16:34:55.587Z,30.00
2018-09-12T16:37:22.477Z,30.18
2018-09-12T16:39:49.400Z,30.30
2018-09-12T16:42:16.348Z,30.28
2018-09-12T16:44:43.384Z,30.13
2018-09-12T16:47:10.363Z,30.04
2018-09-12T16:49:38.398Z,29.82
2018-09-12T16:52:05.325Z,29.58
2018-09-12T16:54:32.291Z,29.48
2018-09-12T16:56:59.254Z,29.54
2018-09-12T16:59:26.105Z,29.49
2018-09-12T17:01:52.959Z,29.60
2018-09-12T17:04:19.886Z,29.27
2018-09-12T17:06:46.876Z,29.32
2018-09-12T17:09:13.804Z,29.16
2018-09-12T17:11:40.788Z,29.01
2018-09-12T17:14:08.133Z,29.03
2018-09-12T17:16:35.013Z,29.05
2018-09-12T17:19:02.073Z,28.92
2018-09-12T17:21:29.800Z,28.91
2018-09-12T17:23:56.856Z,28.73
2018-09-12T17:26:23.932Z,28.66
2018-09-12T17:28:50.947Z,28.47
2018-09-12T17:31:17.851Z,28.26
2018-09-12T17:33:44.850Z,28.04
2018-09-12T17:36:11.723Z,27.92
2018-09-12T17:38:38.650Z,27.89
2018-09-12T17:41:05.578Z,27.74
2018-09-12T17:43:32.543Z,27.75
2018-09-12T17:45:59.412Z,27.53
2018-09-12T17:48:26.355Z,27.40
2018-09-12T17:50:53.339Z,27.48
2018-09-12T17:53:20.297Z,27.42
2018-09-12T17:55:47.203Z,27.21
2018-09-12T17:58:14.019Z,26.81
2018-09-12T18:00:41.980Z,26.56
2018-09-12T18:03:08.912Z,27.27
2018-09-12T18:05:35.796Z,26.58
2018-09-12T18:08:03.127Z,26.43
2018-09-12T18:10:30.091Z,26.13
2018-09-12T18:12:57.044Z,26.25
2018-09-12T18:15:23.955Z,26.33
2018-09-12T18:17:50.915Z,26.32
2018-09-12T18:20:17.832Z,26.31
2018-09-12T18:22:44.784Z,26.30
2018-09-12T18:25:11.767Z,26.24
2018-09-12T18:27:38.643Z,26.15
2018-09-12T18:30:05.971Z,25.99
2018-09-12T18:32:32.884Z,25.97
2018-09-12T18:34:59.787Z,25.99
2018-09-12T18:37:26.667Z,25.66
2018-09-12T18:39:53.579Z,25.45
2018-09-12T18:42:20.543Z,25.39
2018-09-12T18:44:47.521Z,24.99
2018-09-12T18:47:14.412Z,24.92
2018-09-12T18:49:41.316Z,24.66
2018-09-12T18:52:08.300Z,24.44
2018-09-12T18:54:35.239Z,24.62
2018-09-12T18:57:02.291Z,24.46
2018-09-12T18:59:29.188Z,24.02
2018-09-12T19:01:56.100Z,23.78
2018-09-12T19:04:23.114Z,23.85
2018-09-12T19:06:51.137Z,23.97
2018-09-12T19:09:18.019Z,24.67
2018-09-12T19:11:45.022Z,24.82
2018-09-12T19:14:11.923Z,23.93
2018-09-12T19:16:38.888Z,23.68
2018-09-12T19:19:05.843Z,23.82
2018-09-12T19:21:32.735Z,23.77
2018-09-12T19:23:59.652Z,23.77
2018-09-12T19:26:26.620Z,24.15
2018-09-12T19:28:53.576Z,23.77
2018-09-12T19:31:20.508Z,23.66
2018-09-12T19:33:47.533Z,23.64
2018-09-12T19:36:14.463Z,23.55
2018-09-12T19:38:41.380Z,23.44
2018-09-12T19:41:08.381Z,23.41
2018-09-12T19:43:35.260Z,23.39
2018-09-12T19:46:02.279Z,23.40
2018-09-12T19:48:29.599Z,23.53
2018-09-12T19:50:56.503Z,23.68
2018-09-12T19:53:23.464Z,23.54
2018-09-12T19:55:50.451Z,23.56
2018-09-12T19:58:17.356Z,23.61
2018-09-12T20:00:44.315Z,23.74
2018-09-12T20:03:11.354Z,23.47
2018-09-12T20:05:38.245Z,23.38
2018-09-12T20:08:05.211Z,23.35
2018-09-12T20:10:32.136Z,23.51
2018-09-12T20:12:59.095Z,23.96
2018-09-12T20:15:25.973Z,24.13
2018-09-12T20:17:52.907Z,24.34
2018-09-12T20:20:19.862Z,24.49
2018-09-12T20:22:46.815Z,24.53
2018-09-12T20:25:13.677Z,24.51
2018-09-12T20:27:40.647Z,24.56
2018-09-12T20:30:07.672Z,24.60
2018-09-12T20:32:34.608Z,24.66
2018-09-12T20:35:01.433Z,24.58
2018-09-12T20:37:28.364Z,24.41
2018-09-12T20:39:55.371Z,24.50
2018-09-12T20:42:22.276Z,24.04
2018-09-12T20:44:49.255Z,24.10
2018-09-12T20:47:16.120Z,23.92
2018-09-12T20:49:43.043Z,23.82
2018-09-12T20:52:10.001Z,23.35
2018-09-12T20:54:36.968Z,23.28
2018-09-12T20:57:04.160Z,23.25
2018-09-12T20:59:31.091Z,23.45
2018-09-12T21:01:58.044Z,23.59
2018-09-12T21:04:25.000Z,23.63
2018-09-12T21:06:51.965Z,23.71
2018-09-12T21:09:18.915Z,23.66
2018-09-12T21:11:45.859Z,23.47
2018-09-12T21:14:12.884Z,22.91
2018-09-12T21:16:39.835Z,22.96
2018-09-12T21:19:07.342Z,23.01
2018-09-12T21:21:34.495Z,22.96
2018-09-12T21:24:01.365Z,22.84
2018-09-12T21:26:28.827Z,22.85
2018-09-12T21:28:56.191Z,22.87
2018-09-12T21:31:23.095Z,22.86
2018-09-12T21:33:50.011Z,22.79
2018-09-12T21:36:16.979Z,22.72
2018-09-12T21:38:43.953Z,22.70
2018-09-12T21:41:10.824Z,22.65
2018-09-12T21:43:37.751Z,22.67
2018-09-12T21:46:04.691Z,22.87
2018-09-12T21:48:31.722Z,22.80
2018-09-12T21:50:58.722Z,22.76
2018-09-12T21:53:25.674Z,22.61
2018-09-12T21:55:52.763Z,22.68
2018-09-12T21:58:19.687Z,22.62
2018-09-12T22:00:46.679Z,22.59
2018-09-12T22:03:13.633Z,22.67
2018-09-12T22:05:40.586Z,22.75
2018-09-12T22:08:07.602Z,22.95
2018-09-12T22:10:34.771Z,22.95
2018-09-12T22:13:01.677Z,23.01
2018-09-12T22:15:28.631Z,23.03
2018-09-12T22:17:55.570Z,23.03
2018-09-12T22:20:22.535Z,23.13
2018-09-12T22:22:49.471Z,22.97
2018-09-12T22:25:16.515Z,22.99
2018-09-12T22:27:43.409Z,22.82
2018-09-12T22:30:10.412Z,22.67
2018-09-12T22:32:37.384Z,22.51
2018-09-12T22:35:04.331Z,22.44
2018-09-12T22:37:31.211Z,22.43
2018-09-12T22:39:58.178Z,22.44
2018-09-12T22:42:25.136Z,22.38
2018-09-12T22:44:52.131Z,22.29
2018-09-12T22:47:20.071Z,22.27
2018-09-12T22:49:47.027Z,22.19
2018-09-12T22:52:14.020Z,22.08
2018-09-12T22:54:40.943Z,21.99
2018-09-12T22:57:07.891Z,21.96
2018-09-12T22:59:34.755Z,21.87
2018-09-12T23:02:01.724Z,21.83
2018-09-12T23:04:28.675Z,21.90
2018-09-12T23:06:55.634Z,21.77
2018-09-12T23:09:22.593Z,21.60
2018-09-12T23:11:49.533Z,21.50
2018-09-12T23:14:16.512Z,21.39
2018-09-12T23:16:43.792Z,21.43
2018-09-12T23:19:11.043Z,21.46
2018-09-12T23:21:37.987Z,21.36
2018-09-12T23:24:05.087Z,21.31
2018-09-12T23:26:32.042Z,21.38
2018-09-12T23:28:58.959Z,21.37
2018-09-12T23:31:25.836Z,21.26
2018-09-12T23:33:52.839Z,21.17
2018-09-12T23:36:19.759Z,21.15
2018-09-12T23:38:46.694Z,21.14
2018-09-12T23:41:13.560Z,21.04
2018-09-12T23:43:40.492Z,20.91
2018-09-12T23:46:07.499Z,20.92
2018-09-12T23:48:34.415Z,20.86
2018-09-12T23:51:01.392Z,20.77
2018-09-12T23:53:28.951Z,20.72
2018-09-12T23:55:55.971Z,20.70
2018-09-12T23:58:22.961Z,20.58
